首页
METAR-TAF:

METAR-TAF

机场 :

貝爾格勒尼古拉·特斯拉機場

贝尔格莱德, 塞尔维亚

纬度: 44-49N, 经度: 020-17E, 海拔: 96米

当前天气观测

该预报发布于12分钟前的02:00 UTC
风速12节,风向东南
温度 7°C
湿度 36%
气压 1032 hPa
能见度10公里或以上
1500米以下无云,无积雨云

METAR: LYBE 070200Z 13012KT CAVOK 07/M07 Q1032 NOSIG

时间: 04:12 (02:12 UTC)

预报

该预报发布于3小时和12分钟前的23:00 UTC
预报有效从07日的 00点(UTC)到 07日的 24点(UTC)
风速6节,风向
能见度10公里或以上
1500米以下无云,无积雨云
短暂存在
从 07日的 08点(UTC)到 07日的 15点(UTC)
风速16节,风向东转东南

TAF: LYBE 062300Z 0700/0724 10006KT CAVOK TX18/0712Z TN05/0705Z TEMPO 0708/0715 11016KT

超过4000个机场的气象观测和天气预报(METAR&TAF报告)。

可查询的气象台以黄色和红色小点在地图上表示。

将鼠标移到小点上方,可查看气象台名称。

然后点击查看天气观测和预报。

如需切换地图:点击带黑十字的绿色按钮放大地图;点击带横线的绿色按钮缩小地图;或者点击绿色箭头查看邻近地区的地图。


METAR-TAF: